Time;durP1;ratioP1;P1;durP2;ratioP2;P2;SDS_P1;SDS_P2;PMS_P1;PMS_P2;Temp;Humidity;BMP_temperature;BMP_pressure;BME280_temperature;BME280_humidity;BME280_pressure;Samples;Min_cycle;Max_cycle;Signal;HPM_P1;HPM_P2
2023/08/13 00:00:44;;;;;;;18.88;8.82;;;;;;;;;;5067444;28;20075;-69
2023/08/13 00:03:09;;;;;;;23.02;7.65;;;;;;;;;;5066696;28;20032;-68
2023/08/13 00:05:34;;;;;;;18.95;6.22;;;;;;;;;;5064681;28;20024;-69
2023/08/13 00:08:00;;;;;;;25.00;10.67;;;;;;;;;;5055821;28;20025;-69
2023/08/13 00:10:25;;;;;;;23.92;11.48;;;;;;;;;;5055041;28;20068;-69
2023/08/13 00:12:50;;;;;;;26.05;11.35;;;;;;;;;;5052919;28;20049;-69
2023/08/13 00:15:15;;;;;;;25.13;10.75;;;;;;;;;;5051901;28;20029;-68
2023/08/13 00:17:41;;;;;;;29.83;11.93;;;;;;;;;;5061171;28;20540;-68
2023/08/13 00:20:07;;;;;;;29.88;11.88;;;;;;;;;;5052614;28;20690;-68
2023/08/13 00:22:32;;;;;;;28.05;12.40;;;;;;;;;;5054135;28;20370;-69
2023/08/13 00:24:57;;;;;;;27.65;13.25;;;;;;;;;;5061562;28;20025;-68
2023/08/13 00:27:23;;;;;;;33.60;14.38;;;;;;;;;;5066294;28;20092;-68
2023/08/13 00:29:48;;;;;;;26.42;11.82;;;;;;;;;;5058160;28;20139;-69
2023/08/13 00:32:13;;;;;;;28.67;12.43;;;;;;;;;;5052525;28;20135;-69
2023/08/13 00:34:38;;;;;;;28.75;12.43;;;;;;;;;;5057014;28;20441;-69
2023/08/13 00:37:04;;;;;;;34.40;14.25;;;;;;;;;;5056495;28;20074;-68
2023/08/13 00:39:29;;;;;;;29.80;12.50;;;;;;;;;;5053358;28;20021;-69
2023/08/13 00:41:54;;;;;;;33.42;15.32;;;;;;;;;;5056899;28;20389;-68
2023/08/13 00:44:20;;;;;;;39.55;16.90;;;;;;;;;;5063061;28;20023;-64
2023/08/13 00:46:45;;;;;;;34.88;15.93;;;;;;;;;;5071471;28;20017;-65
2023/08/13 00:49:11;;;;;;;37.83;16.60;;;;;;;;;;5053860;28;20044;-64
2023/08/13 00:51:36;;;;;;;35.80;16.83;;;;;;;;;;5071694;28;20017;-64
2023/08/13 00:54:02;;;;;;;39.92;16.55;;;;;;;;;;5071335;28;20411;-64
2023/08/13 00:56:27;;;;;;;32.78;15.00;;;;;;;;;;5063525;28;20027;-64
2023/08/13 00:58:52;;;;;;;34.33;14.73;;;;;;;;;;5064698;28;20482;-64
2023/08/13 01:04:03;;;;;;;36.95;14.93;;;;;;;;;;5028400;28;20052;-69
2023/08/13 01:06:47;;;;;;;35.03;14.82;;;;;;;;;;5029790;28;20108;-71
2023/08/13 01:09:22;;;;;;;36.10;15.97;;;;;;;;;;5032327;28;20014;-70
2023/08/13 01:11:53;;;;;;;42.23;16.83;;;;;;;;;;5031726;28;20025;-70
2023/08/13 01:14:18;;;;;;;39.73;17.23;;;;;;;;;;5031685;28;20104;-70
2023/08/13 01:16:43;;;;;;;42.05;17.98;;;;;;;;;;5014190;28;20264;-70
2023/08/13 01:19:12;;;;;;;32.38;16.67;;;;;;;;;;5032007;28;20072;-70
2023/08/13 01:21:37;;;;;;;40.17;18.03;;;;;;;;;;5031699;28;20030;-70
2023/08/13 01:24:03;;;;;;;42.25;18.90;;;;;;;;;;5032074;28;20083;-70
2023/08/13 01:26:31;;;;;;;39.58;18.02;;;;;;;;;;5027316;28;20089;-70
2023/08/13 01:29:04;;;;;;;38.92;17.75;;;;;;;;;;5027502;28;20026;-71
2023/08/13 01:31:31;;;;;;;43.28;18.20;;;;;;;;;;5030396;28;20037;-70
2023/08/13 01:33:58;;;;;;;38.37;17.07;;;;;;;;;;5031129;28;20102;-70
2023/08/13 01:36:25;;;;;;;38.60;17.23;;;;;;;;;;5028846;28;20108;-70
2023/08/13 01:38:50;;;;;;;41.90;18.92;;;;;;;;;;5030435;28;20029;-70
2023/08/13 01:41:16;;;;;;;38.83;18.10;;;;;;;;;;5029425;28;20079;-70
2023/08/13 01:43:41;;;;;;;39.60;19.05;;;;;;;;;;5034730;28;20025;-70
2023/08/13 01:46:06;;;;;;;36.97;19.08;;;;;;;;;;5031968;28;20028;-70
2023/08/13 01:48:31;;;;;;;40.28;18.90;;;;;;;;;;5031081;28;20027;-70
2023/08/13 01:50:57;;;;;;;37.70;19.20;;;;;;;;;;5031787;28;20030;-70
2023/08/13 01:53:22;;;;;;;41.75;18.85;;;;;;;;;;5031608;28;20091;-70
2023/08/13 01:55:47;;;;;;;37.10;17.50;;;;;;;;;;5027425;28;20025;-69
2023/08/13 01:58:12;;;;;;;37.47;17.70;;;;;;;;;;5032852;28;20052;-70
2023/08/13 02:00:38;;;;;;;34.88;17.77;;;;;;;;;;5031549;28;20355;-69
2023/08/13 02:03:03;;;;;;;40.78;17.13;;;;;;;;;;5043918;28;20047;-70
2023/08/13 02:05:28;;;;;;;35.67;16.92;;;;;;;;;;5037494;28;20049;-70
2023/08/13 02:07:53;;;;;;;42.15;16.85;;;;;;;;;;5032353;28;20025;-70
2023/08/13 02:10:19;;;;;;;33.97;17.05;;;;;;;;;;5031885;28;20098;-71
2023/08/13 02:12:44;;;;;;;35.10;16.80;;;;;;;;;;5032005;28;20025;-70
2023/08/13 02:15:09;;;;;;;38.60;17.13;;;;;;;;;;5034035;28;20071;-70
2023/08/13 02:17:35;;;;;;;40.88;17.40;;;;;;;;;;5039690;28;20168;-70
2023/08/13 02:20:00;;;;;;;35.42;16.98;;;;;;;;;;5032173;28;20026;-70
2023/08/13 02:22:25;;;;;;;38.53;16.40;;;;;;;;;;5035370;28;20431;-70
2023/08/13 02:24:51;;;;;;;34.47;16.38;;;;;;;;;;5050995;28;20017;-70
2023/08/13 02:27:16;;;;;;;34.85;15.75;;;;;;;;;;5050413;28;20022;-69
2023/08/13 02:29:42;;;;;;;34.58;16.15;;;;;;;;;;5050687;28;20025;-70
2023/08/13 02:32:07;;;;;;;33.75;15.75;;;;;;;;;;5050178;28;20017;-70
2023/08/13 02:34:33;;;;;;;30.20;15.40;;;;;;;;;;5045075;28;20028;-70
2023/08/13 02:36:59;;;;;;;32.65;15.15;;;;;;;;;;5043991;28;20112;-71
2023/08/13 02:39:24;;;;;;;29.25;14.60;;;;;;;;;;5051740;28;20941;-70
2023/08/13 02:41:49;;;;;;;28.88;14.43;;;;;;;;;;5043990;28;20033;-71
2023/08/13 02:44:14;;;;;;;28.40;14.45;;;;;;;;;;5053339;28;20441;-70
2023/08/13 02:46:40;;;;;;;36.58;14.27;;;;;;;;;;5052576;28;20098;-70
2023/08/13 02:49:05;;;;;;;27.00;14.25;;;;;;;;;;5047447;28;20484;-71
2023/08/13 02:51:30;;;;;;;27.33;14.75;;;;;;;;;;5048849;28;20381;-70
2023/08/13 02:53:55;;;;;;;27.83;13.75;;;;;;;;;;5051512;28;20025;-70
2023/08/13 02:56:20;;;;;;;32.92;15.30;;;;;;;;;;5053345;28;20079;-70
2023/08/13 02:58:46;;;;;;;29.23;13.85;;;;;;;;;;5039941;28;20044;-70
2023/08/13 03:01:11;;;;;;;23.65;13.82;;;;;;;;;;5037244;28;20036;-70
2023/08/13 03:03:37;;;;;;;28.00;13.18;;;;;;;;;;5041883;28;20060;-70
2023/08/13 03:06:02;;;;;;;23.17;12.43;;;;;;;;;;5047386;28;20393;-70
2023/08/13 03:08:27;;;;;;;25.77;12.05;;;;;;;;;;5048509;28;20024;-69
2023/08/13 03:10:53;;;;;;;25.63;11.27;;;;;;;;;;5049307;28;20052;-70
2023/08/13 03:13:18;;;;;;;22.17;10.32;;;;;;;;;;5035071;28;20130;-70
2023/08/13 03:15:44;;;;;;;19.40;9.73;;;;;;;;;;5053601;28;20032;-70
2023/08/13 03:18:10;;;;;;;22.58;11.15;;;;;;;;;;5053627;28;20457;-70
2023/08/13 03:20:35;;;;;;;20.02;9.80;;;;;;;;;;5049419;28;20116;-70
2023/08/13 03:23:00;;;;;;;20.52;9.90;;;;;;;;;;5045304;28;20412;-65
2023/08/13 03:25:25;;;;;;;19.10;9.73;;;;;;;;;;5053580;28;20043;-65
2023/08/13 03:27:51;;;;;;;22.90;9.63;;;;;;;;;;5053717;28;20075;-65
2023/08/13 03:30:16;;;;;;;16.27;9.52;;;;;;;;;;5053144;28;20017;-65
2023/08/13 03:32:41;;;;;;;22.35;9.48;;;;;;;;;;5049444;28;20087;-65
2023/08/13 03:35:07;;;;;;;20.80;9.75;;;;;;;;;;5052421;28;20100;-65
2023/08/13 03:37:32;;;;;;;17.40;9.80;;;;;;;;;;5048685;28;20036;-65
2023/08/13 03:39:57;;;;;;;23.83;9.43;;;;;;;;;;5053135;28;20075;-65
2023/08/13 03:42:22;;;;;;;20.83;9.32;;;;;;;;;;5044570;28;20021;-65
2023/08/13 03:44:47;;;;;;;21.83;9.57;;;;;;;;;;5051537;28;20029;-66
2023/08/13 03:47:13;;;;;;;22.00;9.70;;;;;;;;;;5052597;28;20021;-65
2023/08/13 03:49:38;;;;;;;24.70;9.47;;;;;;;;;;5052558;28;20045;-66
2023/08/13 03:52:04;;;;;;;20.85;10.25;;;;;;;;;;5049831;28;20522;-66
2023/08/13 03:54:30;;;;;;;22.65;9.60;;;;;;;;;;5040717;28;20028;-66
2023/08/13 03:56:55;;;;;;;18.38;9.40;;;;;;;;;;5033917;28;20029;-65
2023/08/13 03:59:20;;;;;;;21.47;10.03;;;;;;;;;;5034265;28;20014;-66
2023/08/13 04:01:45;;;;;;;19.30;10.30;;;;;;;;;;5034450;28;20394;-66
2023/08/13 04:04:11;;;;;;;22.20;9.68;;;;;;;;;;5048564;28;20040;-66
2023/08/13 04:06:36;;;;;;;21.27;9.90;;;;;;;;;;5037468;28;20104;-66
2023/08/13 04:09:01;;;;;;;22.40;10.18;;;;;;;;;;5033993;28;20026;-66
2023/08/13 04:11:27;;;;;;;21.60;10.13;;;;;;;;;;5033869;28;20389;-66
2023/08/13 04:13:52;;;;;;;29.90;10.70;;;;;;;;;;5037231;28;20083;-65
2023/08/13 04:16:17;;;;;;;25.40;9.80;;;;;;;;;;5044193;28;20029;-65
2023/08/13 04:18:43;;;;;;;23.07;10.33;;;;;;;;;;5047116;28;20029;-66
2023/08/13 04:21:08;;;;;;;22.83;10.40;;;;;;;;;;5050499;28;20033;-66
2023/08/13 04:23:33;;;;;;;20.30;9.57;;;;;;;;;;5051485;28;20060;-65
2023/08/13 04:25:59;;;;;;;25.13;10.07;;;;;;;;;;5040370;28;20017;-66
2023/08/13 04:28:24;;;;;;;22.17;10.20;;;;;;;;;;5051660;28;20040;-66
2023/08/13 04:30:49;;;;;;;23.27;10.33;;;;;;;;;;5051912;28;20036;-66
2023/08/13 04:33:14;;;;;;;25.23;10.68;;;;;;;;;;5051988;28;20040;-66
2023/08/13 04:35:40;;;;;;;24.50;10.10;;;;;;;;;;5050616;28;20115;-67
2023/08/13 04:38:05;;;;;;;24.13;9.93;;;;;;;;;;5048732;28;20055;-65
2023/08/13 04:40:30;;;;;;;17.92;9.57;;;;;;;;;;5044999;28;20033;-66
2023/08/13 04:42:55;;;;;;;21.65;9.82;;;;;;;;;;5041889;28;20029;-65
2023/08/13 04:45:21;;;;;;;30.55;10.93;;;;;;;;;;5050011;28;20112;-66
2023/08/13 04:47:46;;;;;;;19.77;9.60;;;;;;;;;;5050838;28;20020;-67
2023/08/13 04:50:13;;;;;;;17.48;8.35;;;;;;;;;;5048607;28;20032;-65
2023/08/13 04:52:38;;;;;;;20.17;7.65;;;;;;;;;;5044905;28;20033;-66
2023/08/13 04:55:04;;;;;;;17.33;6.18;;;;;;;;;;5042173;28;20044;-64
2023/08/13 04:57:29;;;;;;;13.48;4.90;;;;;;;;;;5039646;28;20036;-65
2023/08/13 04:59:54;;;;;;;14.93;4.70;;;;;;;;;;5050387;28;20025;-65
2023/08/13 05:02:19;;;;;;;11.25;4.07;;;;;;;;;;5046569;28;20485;-65
2023/08/13 05:04:45;;;;;;;11.07;3.65;;;;;;;;;;5033883;28;20018;-64
2023/08/13 05:07:10;;;;;;;10.57;3.90;;;;;;;;;;5037441;28;20040;-64
2023/08/13 05:09:35;;;;;;;16.00;5.03;;;;;;;;;;5038084;28;20059;-65
2023/08/13 05:12:01;;;;;;;9.40;3.53;;;;;;;;;;5049651;28;20112;-65
2023/08/13 05:14:27;;;;;;;11.48;3.72;;;;;;;;;;5050709;28;20488;-64
2023/08/13 05:16:55;;;;;;;10.93;3.45;;;;;;;;;;5050609;28;20021;-64
2023/08/13 05:19:21;;;;;;;12.07;3.47;;;;;;;;;;5051245;28;20040;-64
2023/08/13 05:21:46;;;;;;;11.48;3.25;;;;;;;;;;5051374;28;20021;-64
2023/08/13 05:24:11;;;;;;;11.60;3.38;;;;;;;;;;5037553;28;20038;-66
2023/08/13 05:26:36;;;;;;;10.27;3.13;;;;;;;;;;5038577;28;20059;-65
2023/08/13 05:29:03;;;;;;;10.18;3.22;;;;;;;;;;5039118;28;20020;-66
2023/08/13 05:31:28;;;;;;;9.60;2.72;;;;;;;;;;5032488;28;20029;-65
2023/08/13 05:33:53;;;;;;;10.55;3.00;;;;;;;;;;5034776;28;20100;-67
2023/08/13 05:36:19;;;;;;;9.48;2.80;;;;;;;;;;5051040;28;20020;-65
2023/08/13 05:38:44;;;;;;;9.98;2.65;;;;;;;;;;5049596;28;20025;-65
2023/08/13 05:41:09;;;;;;;12.23;3.10;;;;;;;;;;5043934;28;20022;-70
2023/08/13 05:43:35;;;;;;;8.68;2.30;;;;;;;;;;5039692;28;20074;-69
2023/08/13 05:46:00;;;;;;;7.38;2.20;;;;;;;;;;5049930;28;20512;-69
2023/08/13 05:48:25;;;;;;;10.38;2.17;;;;;;;;;;5050771;28;20025;-69
2023/08/13 05:50:50;;;;;;;7.68;2.33;;;;;;;;;;5049794;28;20025;-69
2023/08/13 05:53:15;;;;;;;8.25;2.17;;;;;;;;;;5046312;28;20048;-66
2023/08/13 05:55:41;;;;;;;9.13;2.40;;;;;;;;;;5035299;28;20121;-66
2023/08/13 05:58:06;;;;;;;11.57;2.25;;;;;;;;;;5045004;28;20048;-67
2023/08/13 06:00:31;;;;;;;6.13;2.17;;;;;;;;;;5041431;28;20839;-66
2023/08/13 06:02:57;;;;;;;9.90;2.15;;;;;;;;;;5033284;28;20053;-70
2023/08/13 06:05:23;;;;;;;11.63;2.58;;;;;;;;;;5046272;28;20029;-69
2023/08/13 06:07:48;;;;;;;8.60;2.20;;;;;;;;;;5036352;28;20389;-71
2023/08/13 06:10:13;;;;;;;7.75;2.45;;;;;;;;;;5042490;28;20030;-70
2023/08/13 06:12:38;;;;;;;8.13;2.30;;;;;;;;;;5048092;28;20025;-71
2023/08/13 06:15:04;;;;;;;8.50;2.22;;;;;;;;;;5051503;28;20051;-70
2023/08/13 06:17:29;;;;;;;10.18;2.55;;;;;;;;;;5053275;28;20131;-70
2023/08/13 06:19:55;;;;;;;7.40;2.10;;;;;;;;;;5045114;28;20108;-71
2023/08/13 06:22:20;;;;;;;8.77;2.17;;;;;;;;;;5048590;28;20122;-71
2023/08/13 06:24:45;;;;;;;8.23;2.15;;;;;;;;;;5037566;28;20025;-71
2023/08/13 06:27:11;;;;;;;9.57;2.28;;;;;;;;;;5036087;28;20040;-72
2023/08/13 06:29:36;;;;;;;8.98;2.30;;;;;;;;;;5038503;28;20056;-71
2023/08/13 06:32:01;;;;;;;10.95;2.45;;;;;;;;;;5035671;28;20458;-71
2023/08/13 06:34:26;;;;;;;10.80;2.33;;;;;;;;;;5035627;28;20064;-71
2023/08/13 06:36:53;;;;;;;8.82;2.20;;;;;;;;;;5039665;28;20079;-70
2023/08/13 06:39:19;;;;;;;8.00;2.20;;;;;;;;;;5046148;28;20460;-70
2023/08/13 06:41:44;;;;;;;11.23;2.85;;;;;;;;;;5053985;28;20035;-71
2023/08/13 06:44:15;;;;;;;11.73;2.38;;;;;;;;;;5047040;28;20015;-71
2023/08/13 06:46:40;;;;;;;11.45;2.25;;;;;;;;;;5053899;28;20366;-71
2023/08/13 06:49:06;;;;;;;7.75;2.08;;;;;;;;;;5052737;28;20132;-70
2023/08/13 06:51:31;;;;;;;12.05;2.50;;;;;;;;;;5041089;28;20013;-70
2023/08/13 06:53:56;;;;;;;11.05;2.33;;;;;;;;;;5035597;28;20018;-70
2023/08/13 06:56:21;;;;;;;9.70;2.20;;;;;;;;;;5040831;28;20017;-70
2023/08/13 06:58:47;;;;;;;9.52;2.30;;;;;;;;;;5035457;28;20028;-71
2023/08/13 07:01:12;;;;;;;7.68;2.15;;;;;;;;;;5035133;28;20028;-67
2023/08/13 07:03:37;;;;;;;8.18;2.00;;;;;;;;;;5039674;28;20045;-70
2023/08/13 07:06:02;;;;;;;7.72;1.95;;;;;;;;;;5050084;28;20017;-69
2023/08/13 07:08:27;;;;;;;9.43;2.25;;;;;;;;;;5053888;28;20150;-69
2023/08/13 07:10:53;;;;;;;7.85;2.22;;;;;;;;;;5053518;28;20404;-70
2023/08/13 07:13:18;;;;;;;7.95;2.13;;;;;;;;;;5040356;28;20386;-67
2023/08/13 07:15:44;;;;;;;10.18;1.88;;;;;;;;;;5038471;28;20021;-68
2023/08/13 07:18:09;;;;;;;10.15;2.22;;;;;;;;;;5040961;28;20068;-67
2023/08/13 07:20:34;;;;;;;8.75;1.75;;;;;;;;;;5035904;28;20188;-67
2023/08/13 07:23:00;;;;;;;9.15;2.08;;;;;;;;;;5034629;28;20025;-66
2023/08/13 07:25:25;;;;;;;7.32;2.00;;;;;;;;;;5034407;28;20024;-68
2023/08/13 07:27:52;;;;;;;10.07;2.08;;;;;;;;;;5035010;28;20081;-66
2023/08/13 07:30:18;;;;;;;9.73;2.10;;;;;;;;;;5048845;28;20051;-66
2023/08/13 07:32:43;;;;;;;7.13;1.75;;;;;;;;;;5040881;28;20021;-67
2023/08/13 07:35:10;;;;;;;8.73;2.50;;;;;;;;;;5035625;28;20089;-66
2023/08/13 07:37:35;;;;;;;7.45;2.00;;;;;;;;;;5047384;28;20021;-66
2023/08/13 07:40:00;;;;;;;8.05;2.10;;;;;;;;;;5050225;28;20380;-66
2023/08/13 07:42:26;;;;;;;8.63;2.33;;;;;;;;;;5045729;28;20111;-68
2023/08/13 07:44:51;;;;;;;9.95;2.20;;;;;;;;;;5048525;28;20028;-66
2023/08/13 07:47:17;;;;;;;7.85;1.92;;;;;;;;;;5043536;28;20045;-66
2023/08/13 07:49:42;;;;;;;7.47;1.90;;;;;;;;;;5036824;28;20485;-66
2023/08/13 07:52:07;;;;;;;8.82;2.00;;;;;;;;;;5047187;28;20021;-67
2023/08/13 07:54:33;;;;;;;9.68;1.85;;;;;;;;;;5053092;28;20021;-67
2023/08/13 07:56:58;;;;;;;7.28;1.67;;;;;;;;;;5053169;28;20104;-67
2023/08/13 07:59:23;;;;;;;9.90;1.83;;;;;;;;;;5052975;28;20139;-67
2023/08/13 08:01:49;;;;;;;8.55;1.77;;;;;;;;;;5052156;28;20013;-67
2023/08/13 08:04:14;;;;;;;7.03;1.40;;;;;;;;;;5035336;28;20044;-67
2023/08/13 08:06:39;;;;;;;6.68;1.58;;;;;;;;;;5045404;28;20021;-67
2023/08/13 08:09:07;;;;;;;5.80;1.67;;;;;;;;;;5033905;28;20067;-67
2023/08/13 08:11:33;;;;;;;6.40;1.35;;;;;;;;;;5038752;28;20083;-67
2023/08/13 08:13:58;;;;;;;6.68;1.55;;;;;;;;;;5037695;28;20593;-68
2023/08/13 08:16:23;;;;;;;8.57;1.30;;;;;;;;;;5048346;28;20103;-67
2023/08/13 08:18:48;;;;;;;8.18;1.77;;;;;;;;;;5033811;28;20053;-67
2023/08/13 08:21:14;;;;;;;6.38;1.75;;;;;;;;;;5035912;28;20501;-67
2023/08/13 08:23:40;;;;;;;7.65;1.60;;;;;;;;;;5033672;28;20049;-67
2023/08/13 08:26:05;;;;;;;7.60;1.95;;;;;;;;;;5038223;28;20108;-68
2023/08/13 08:28:31;;;;;;;9.55;1.75;;;;;;;;;;5044595;28;20021;-67
2023/08/13 08:30:56;;;;;;;6.10;1.50;;;;;;;;;;5033463;28;20017;-71
2023/08/13 08:33:23;;;;;;;5.65;1.40;;;;;;;;;;5042189;28;20049;-68
2023/08/13 08:35:48;;;;;;;5.22;1.40;;;;;;;;;;5039383;28;20109;-67
2023/08/13 08:38:13;;;;;;;8.10;1.60;;;;;;;;;;5035558;28;20104;-67
2023/08/13 08:40:42;;;;;;;5.03;1.27;;;;;;;;;;5047148;28;20026;-68
2023/08/13 08:43:07;;;;;;;7.38;1.73;;;;;;;;;;5045721;28;20027;-68
2023/08/13 08:45:33;;;;;;;5.90;1.30;;;;;;;;;;5043762;28;20088;-67
2023/08/13 08:47:59;;;;;;;5.80;1.40;;;;;;;;;;5041982;28;20025;-68
2023/08/13 08:50:24;;;;;;;6.45;1.48;;;;;;;;;;5043290;28;20021;-67
2023/08/13 08:52:50;;;;;;;5.00;1.20;;;;;;;;;;5041198;28;20465;-68
2023/08/13 08:55:16;;;;;;;5.22;1.45;;;;;;;;;;5041105;28;20412;-68
2023/08/13 08:57:41;;;;;;;6.43;1.40;;;;;;;;;;5041479;28;20017;-68
2023/08/13 09:00:06;;;;;;;6.32;1.38;;;;;;;;;;5043011;28;20035;-67
2023/08/13 09:02:32;;;;;;;5.65;1.20;;;;;;;;;;5039939;28;20052;-68
2023/08/13 09:04:57;;;;;;;4.60;1.25;;;;;;;;;;5042343;28;20494;-68
2023/08/13 09:07:30;;;;;;;3.88;0.95;;;;;;;;;;5036193;28;20028;-68
2023/08/13 09:09:55;;;;;;;3.55;0.95;;;;;;;;;;5043012;28;20017;-68
2023/08/13 09:12:21;;;;;;;7.97;1.20;;;;;;;;;;5042004;28;20028;-68
2023/08/13 09:14:46;;;;;;;6.22;1.20;;;;;;;;;;5039934;28;20024;-68
2023/08/13 09:17:12;;;;;;;5.18;1.10;;;;;;;;;;5040117;28;20021;-67
2023/08/13 09:19:37;;;;;;;4.30;1.05;;;;;;;;;;5040898;28;20028;-68
2023/08/13 09:22:03;;;;;;;5.30;1.00;;;;;;;;;;5039189;28;20021;-68
2023/08/13 09:24:32;;;;;;;4.80;1.20;;;;;;;;;;5035354;28;20028;-68
2023/08/13 09:26:57;;;;;;;4.13;1.00;;;;;;;;;;5032720;28;20044;-67
2023/08/13 09:29:22;;;;;;;4.32;0.82;;;;;;;;;;5032469;28;20013;-68
2023/08/13 09:31:48;;;;;;;3.08;0.70;;;;;;;;;;5033119;28;20037;-67
2023/08/13 09:34:13;;;;;;;3.97;1.00;;;;;;;;;;5032644;28;20032;-67
2023/08/13 09:36:38;;;;;;;4.43;0.80;;;;;;;;;;5032554;28;20842;-68
2023/08/13 09:39:04;;;;;;;4.07;0.90;;;;;;;;;;5032357;28;20052;-67
2023/08/13 09:41:30;;;;;;;3.83;0.85;;;;;;;;;;5032371;28;20100;-70
2023/08/13 09:43:59;;;;;;;3.80;0.80;;;;;;;;;;5035009;28;20024;-70
2023/08/13 09:46:25;;;;;;;3.63;1.05;;;;;;;;;;5052213;28;20032;-71
2023/08/13 09:48:52;;;;;;;5.82;1.10;;;;;;;;;;5057387;28;20096;-71
2023/08/13 09:51:17;;;;;;;4.82;1.00;;;;;;;;;;5057637;28;20016;-70
2023/08/13 09:53:48;;;;;;;4.50;0.90;;;;;;;;;;5057390;28;20025;-71
2023/08/13 09:56:14;;;;;;;4.68;1.00;;;;;;;;;;5056207;28;20016;-71
2023/08/13 09:58:39;;;;;;;3.55;0.80;;;;;;;;;;5038968;28;20032;-71
2023/08/13 10:01:05;;;;;;;3.30;0.95;;;;;;;;;;5038682;28;20025;-70
2023/08/13 10:03:30;;;;;;;4.50;0.90;;;;;;;;;;5038682;28;20548;-71
2023/08/13 10:05:56;;;;;;;5.93;0.90;;;;;;;;;;5038732;28;20006;-71
2023/08/13 10:08:22;;;;;;;4.53;1.00;;;;;;;;;;5041649;28;20076;-71
2023/08/13 10:10:48;;;;;;;4.55;0.90;;;;;;;;;;5038937;28;20121;-71
2023/08/13 10:13:13;;;;;;;3.47;0.98;;;;;;;;;;5049601;28;20066;-71
2023/08/13 10:15:39;;;;;;;5.53;1.13;;;;;;;;;;5043406;28;20014;-71
2023/08/13 10:18:04;;;;;;;4.60;0.90;;;;;;;;;;5022207;28;20377;-71
2023/08/13 10:20:29;;;;;;;8.43;1.20;;;;;;;;;;5039224;28;20092;-71
2023/08/13 10:22:55;;;;;;;3.22;0.88;;;;;;;;;;5038766;28;20018;-71
2023/08/13 10:25:28;;;;;;;7.13;1.30;;;;;;;;;;5038590;28;20071;-71
2023/08/13 10:27:54;;;;;;;3.80;0.90;;;;;;;;;;5053915;28;20420;-71
2023/08/13 10:30:19;;;;;;;5.00;1.20;;;;;;;;;;5055419;28;20024;-71
2023/08/13 10:32:48;;;;;;;4.63;0.98;;;;;;;;;;5055315;28;20031;-71
2023/08/13 10:35:23;;;;;;;4.35;1.02;;;;;;;;;;5057462;28;20044;-71
2023/08/13 10:37:49;;;;;;;4.95;0.95;;;;;;;;;;5052227;28;20028;-72
2023/08/13 10:40:16;;;;;;;3.72;1.00;;;;;;;;;;5050377;28;20017;-72
2023/08/13 10:42:45;;;;;;;4.55;0.90;;;;;;;;;;5057012;28;20025;-72
2023/08/13 10:45:10;;;;;;;3.85;0.70;;;;;;;;;;5053552;28;20025;-72
2023/08/13 10:47:48;;;;;;;3.28;1.00;;;;;;;;;;5041437;28;20539;-72
2023/08/13 10:50:23;;;;;;;6.93;1.10;;;;;;;;;;5041649;28;20382;-71
2023/08/13 10:53:10;;;;;;;3.38;1.00;;;;;;;;;;5047831;28;20049;-68
2023/08/13 10:55:40;;;;;;;4.45;0.90;;;;;;;;;;5053834;28;20070;-68
2023/08/13 10:58:05;;;;;;;5.15;1.15;;;;;;;;;;5052826;28;20020;-67
2023/08/13 11:00:39;;;;;;;5.72;1.00;;;;;;;;;;5034875;28;20377;-68
2023/08/13 11:03:19;;;;;;;3.70;0.80;;;;;;;;;;5049802;28;20519;-69
2023/08/13 11:05:44;;;;;;;6.40;1.30;;;;;;;;;;5045242;28;20100;-69
2023/08/13 11:08:14;;;;;;;4.75;0.90;;;;;;;;;;5045819;28;20101;-68
2023/08/13 11:10:39;;;;;;;4.75;1.02;;;;;;;;;;5038274;28;20028;-68
2023/08/13 11:13:04;;;;;;;5.22;0.93;;;;;;;;;;5042390;28;20023;-68
2023/08/13 11:15:29;;;;;;;5.30;1.02;;;;;;;;;;5053679;28;20028;-68
2023/08/13 11:17:55;;;;;;;3.63;0.90;;;;;;;;;;5053603;28;20024;-69
2023/08/13 11:20:20;;;;;;;4.25;0.90;;;;;;;;;;5053696;28;20537;-67
2023/08/13 11:22:46;;;;;;;4.80;0.90;;;;;;;;;;5053893;28;20155;-69
2023/08/13 11:25:12;;;;;;;6.72;1.02;;;;;;;;;;5034794;28;20017;-68
2023/08/13 11:27:38;;;;;;;4.45;0.85;;;;;;;;;;5048260;28;20048;-69
2023/08/13 11:30:04;;;;;;;4.00;0.70;;;;;;;;;;5045383;28;20095;-68
2023/08/13 11:32:29;;;;;;;3.08;0.70;;;;;;;;;;5016727;28;20489;-68
2023/08/13 11:34:54;;;;;;;6.15;1.00;;;;;;;;;;5045793;28;20063;-72
2023/08/13 11:37:20;;;;;;;4.50;1.00;;;;;;;;;;5053079;28;20086;-72
2023/08/13 11:39:46;;;;;;;4.05;0.90;;;;;;;;;;5053487;28;20092;-72
2023/08/13 11:42:11;;;;;;;5.85;1.10;;;;;;;;;;5048010;28;20021;-71
2023/08/13 11:44:36;;;;;;;5.78;1.38;;;;;;;;;;5034651;28;20052;-71
2023/08/13 11:47:04;;;;;;;6.25;1.17;;;;;;;;;;5041980;28;20017;-71
2023/08/13 11:49:30;;;;;;;5.80;1.00;;;;;;;;;;5035337;28;20092;-72
2023/08/13 11:51:55;;;;;;;4.07;1.00;;;;;;;;;;5038171;28;20109;-72
2023/08/13 11:54:21;;;;;;;4.95;0.90;;;;;;;;;;5032989;28;20017;-72
2023/08/13 11:56:47;;;;;;;6.28;1.20;;;;;;;;;;5034067;28;20025;-71
2023/08/13 11:59:13;;;;;;;5.40;1.08;;;;;;;;;;5034084;28;20060;-72
2023/08/13 12:01:38;;;;;;;4.03;1.00;;;;;;;;;;5033971;28;20099;-67
2023/08/13 12:04:06;;;;;;;3.95;1.00;;;;;;;;;;5033885;28;20045;-67
2023/08/13 12:06:35;;;;;;;4.20;0.90;;;;;;;;;;5053030;28;20403;-67
2023/08/13 12:09:00;;;;;;;6.95;1.00;;;;;;;;;;5049377;28;20498;-67
2023/08/13 12:11:25;;;;;;;4.25;1.00;;;;;;;;;;5052051;28;20012;-67
2023/08/13 12:13:51;;;;;;;3.95;1.00;;;;;;;;;;5052918;28;20036;-67
2023/08/13 12:16:16;;;;;;;4.95;1.00;;;;;;;;;;5052500;28;20024;-67
2023/08/13 12:18:41;;;;;;;7.10;1.10;;;;;;;;;;5052579;28;20028;-67
2023/08/13 12:21:07;;;;;;;3.75;1.02;;;;;;;;;;5052713;28;20463;-68
2023/08/13 12:23:32;;;;;;;5.35;1.05;;;;;;;;;;5052087;28;20465;-67
2023/08/13 12:25:58;;;;;;;4.72;1.10;;;;;;;;;;5051231;28;20037;-67
2023/08/13 12:28:23;;;;;;;4.10;0.80;;;;;;;;;;5033757;28;20013;-67
2023/08/13 12:30:48;;;;;;;6.35;1.20;;;;;;;;;;5037526;28;20024;-67
2023/08/13 12:33:13;;;;;;;3.65;0.80;;;;;;;;;;5033812;28;20120;-67
2023/08/13 12:35:38;;;;;;;4.88;1.05;;;;;;;;;;5033496;28;20539;-67
2023/08/13 12:38:04;;;;;;;4.57;1.10;;;;;;;;;;5033623;28;20416;-67
2023/08/13 12:40:29;;;;;;;4.15;1.00;;;;;;;;;;5033505;28;20373;-67
2023/08/13 12:42:54;;;;;;;4.35;1.00;;;;;;;;;;5036598;28;20028;-67
2023/08/13 12:45:20;;;;;;;6.80;1.23;;;;;;;;;;5037984;28;20029;-66
2023/08/13 12:47:45;;;;;;;4.53;0.98;;;;;;;;;;5033856;28;20029;-66
2023/08/13 12:50:10;;;;;;;7.82;1.23;;;;;;;;;;5033434;28;20009;-66
2023/08/13 12:52:36;;;;;;;4.75;0.90;;;;;;;;;;5033359;28;20040;-67
2023/08/13 12:55:01;;;;;;;3.72;0.93;;;;;;;;;;5033210;28;20021;-66
2023/08/13 12:57:26;;;;;;;4.95;1.13;;;;;;;;;;5033293;28;20533;-66
2023/08/13 12:59:53;;;;;;;6.15;1.00;;;;;;;;;;5034570;28;20049;-67
2023/08/13 13:02:19;;;;;;;3.75;0.90;;;;;;;;;;5032683;28;20504;-66
2023/08/13 13:04:44;;;;;;;5.15;1.10;;;;;;;;;;5033158;28;20087;-67
2023/08/13 13:07:09;;;;;;;7.25;1.08;;;;;;;;;;5033158;28;20088;-66
2023/08/13 13:09:34;;;;;;;6.20;1.02;;;;;;;;;;5036357;28;20485;-66
2023/08/13 13:11:59;;;;;;;5.20;1.10;;;;;;;;;;5033939;28;20515;-66
2023/08/13 13:14:25;;;;;;;6.88;1.42;;;;;;;;;;5049152;28;20021;-67
2023/08/13 13:16:50;;;;;;;3.65;0.98;;;;;;;;;;5051459;28;20020;-67
2023/08/13 13:19:16;;;;;;;3.80;0.88;;;;;;;;;;5050286;28;20017;-66
2023/08/13 13:21:41;;;;;;;4.22;1.10;;;;;;;;;;5050626;28;20021;-67
2023/08/13 13:24:06;;;;;;;4.60;0.98;;;;;;;;;;5051708;28;20013;-66
2023/08/13 13:26:32;;;;;;;3.80;0.90;;;;;;;;;;5044958;28;20028;-66
2023/08/13 13:28:57;;;;;;;3.97;1.00;;;;;;;;;;5032394;28;20032;-67
2023/08/13 13:31:22;;;;;;;6.18;1.10;;;;;;;;;;5032325;28;20359;-66
2023/08/13 13:33:47;;;;;;;5.22;1.10;;;;;;;;;;5032364;28;20021;-67
2023/08/13 13:36:13;;;;;;;5.38;1.20;;;;;;;;;;5032468;28;20028;-66
2023/08/13 13:38:38;;;;;;;4.28;1.08;;;;;;;;;;5032600;28;20032;-67
2023/08/13 13:41:03;;;;;;;5.13;1.02;;;;;;;;;;5033568;28;20029;-66
2023/08/13 13:43:28;;;;;;;5.38;0.90;;;;;;;;;;5033029;28;20029;-66
2023/08/13 13:45:54;;;;;;;5.45;0.90;;;;;;;;;;5038569;28;20481;-67
2023/08/13 13:48:19;;;;;;;5.35;1.20;;;;;;;;;;5040134;28;20013;-67
2023/08/13 13:50:44;;;;;;;4.13;0.90;;;;;;;;;;5051193;28;20024;-67
2023/08/13 13:53:10;;;;;;;6.20;0.90;;;;;;;;;;5050739;28;20017;-68
2023/08/13 13:55:35;;;;;;;4.18;1.08;;;;;;;;;;5051068;28;20362;-68
2023/08/13 13:58:00;;;;;;;4.65;1.05;;;;;;;;;;5050537;28;20044;-68
2023/08/13 14:00:26;;;;;;;3.08;0.80;;;;;;;;;;5050793;28;20095;-67
2023/08/13 14:02:52;;;;;;;4.57;1.05;;;;;;;;;;5042554;28;20048;-67
2023/08/13 14:05:17;;;;;;;4.55;1.20;;;;;;;;;;5032247;28;20172;-67
2023/08/13 14:07:42;;;;;;;5.97;1.10;;;;;;;;;;5032033;28;20017;-67
2023/08/13 14:10:07;;;;;;;4.40;1.00;;;;;;;;;;5032113;28;20072;-67
2023/08/13 14:12:33;;;;;;;6.40;1.10;;;;;;;;;;5032273;28;20018;-67
2023/08/13 14:14:58;;;;;;;5.15;1.08;;;;;;;;;;5031976;28;20407;-67
2023/08/13 14:17:24;;;;;;;3.70;1.00;;;;;;;;;;5032097;28;20064;-67
2023/08/13 14:19:49;;;;;;;6.35;1.48;;;;;;;;;;5032260;28;20555;-68
2023/08/13 14:22:14;;;;;;;6.95;1.30;;;;;;;;;;5032240;28;20018;-68
2023/08/13 14:24:40;;;;;;;4.38;1.05;;;;;;;;;;5032022;28;20041;-67
2023/08/13 14:27:05;;;;;;;4.75;1.13;;;;;;;;;;5033788;28;20063;-68